Time;durP1;ratioP1;P1;durP2;ratioP2;P2;SDS_P1;SDS_P2;PMS_P1;PMS_P2;Temp;Humidity;BMP_temperature;BMP_pressure;BME280_temperature;BME280_humidity;BME280_pressure;Samples;Min_cycle;Max_cycle;Signal;HPM_P1;HPM_P2
2024/01/19 00:01:49;;;;;;;18.77;9.93;;;-3.20;99.90;;;;;;5053070;28;20025;-81
2024/01/19 00:04:15;;;;;;;17.38;10.00;;;-3.20;99.90;;;;;;5051394;28;20436;-79
2024/01/19 00:06:41;;;;;;;24.17;10.50;;;-3.20;99.90;;;;;;5035973;28;20033;-80
2024/01/19 00:09:07;;;;;;;20.20;10.52;;;-3.10;99.90;;;;;;5056827;28;20014;-79
2024/01/19 00:11:33;;;;;;;16.65;10.55;;;-3.10;99.90;;;;;;5056178;28;20037;-81
2024/01/19 00:13:59;;;;;;;21.17;10.10;;;-3.10;99.90;;;;;;5033653;28;20104;-79
2024/01/19 00:16:25;;;;;;;21.17;11.65;;;-3.10;99.90;;;;;;5051519;28;20111;-80
2024/01/19 00:18:51;;;;;;;19.38;10.02;;;-3.00;99.90;;;;;;5051454;28;20021;-80
2024/01/19 00:21:17;;;;;;;21.52;10.02;;;-3.00;99.90;;;;;;5029402;28;20124;-80
2024/01/19 00:23:43;;;;;;;19.30;11.05;;;-3.00;99.90;;;;;;5030596;28;20115;-80
2024/01/19 00:26:13;;;;;;;17.27;10.07;;;-3.00;99.90;;;;;;5052529;28;20074;-80
2024/01/19 00:28:38;;;;;;;18.67;10.52;;;-3.00;99.90;;;;;;5055188;28;20025;-79
2024/01/19 00:31:06;;;;;;;15.75;10.20;;;-2.90;99.90;;;;;;5051434;28;20071;-81
2024/01/19 00:33:31;;;;;;;15.88;11.30;;;-2.90;99.90;;;;;;5052318;28;20048;-80
2024/01/19 00:35:58;;;;;;;17.45;11.07;;;-2.90;99.90;;;;;;5051568;28;20029;-80
2024/01/19 00:38:26;;;;;;;17.27;10.93;;;-2.90;99.90;;;;;;5031201;28;20028;-83
2024/01/19 00:40:52;;;;;;;15.43;10.68;;;-2.90;99.90;;;;;;5052158;28;20474;-80
2024/01/19 00:43:17;;;;;;;17.92;11.15;;;-2.80;99.90;;;;;;5052005;28;20033;-80
2024/01/19 00:45:43;;;;;;;15.23;11.10;;;-2.80;99.90;;;;;;5052753;28;20037;-80
2024/01/19 00:48:09;;;;;;;24.00;12.30;;;-2.80;99.90;;;;;;5052409;28;20417;-82
2024/01/19 00:50:35;;;;;;;18.63;10.70;;;-2.80;99.90;;;;;;5048669;28;20028;-81
2024/01/19 00:53:01;;;;;;;19.58;11.27;;;-2.80;99.90;;;;;;5054747;28;20021;-81
2024/01/19 00:55:27;;;;;;;19.90;11.65;;;-2.80;99.90;;;;;;5037552;28;20082;-80
2024/01/19 00:57:53;;;;;;;18.08;11.30;;;-2.80;99.90;;;;;;5054948;28;20021;-82
2024/01/19 01:00:19;;;;;;;21.65;12.65;;;-2.70;99.90;;;;;;5036926;28;20032;-82
2024/01/19 01:02:44;;;;;;;20.58;11.40;;;-2.70;99.90;;;;;;5054546;28;20100;-82
2024/01/19 01:05:10;;;;;;;16.10;11.57;;;-2.70;99.90;;;;;;5054853;28;20106;-80
2024/01/19 01:07:37;;;;;;;20.27;10.90;;;-2.60;99.90;;;;;;5054834;28;20028;-80
2024/01/19 01:10:03;;;;;;;16.73;11.48;;;-2.70;99.90;;;;;;5037003;28;20449;-82
2024/01/19 01:12:29;;;;;;;16.77;10.85;;;-2.60;99.90;;;;;;5046770;28;20021;-80
2024/01/19 01:14:54;;;;;;;16.77;10.75;;;-2.60;99.90;;;;;;5037299;28;20029;-81
2024/01/19 01:17:20;;;;;;;18.15;10.55;;;-2.60;99.90;;;;;;5054814;28;20437;-81
2024/01/19 01:19:46;;;;;;;20.40;11.15;;;-2.50;99.90;;;;;;5036553;28;20394;-82
2024/01/19 01:22:13;;;;;;;21.88;13.25;;;-2.50;99.90;;;;;;5054425;28;20092;-80
2024/01/19 01:24:39;;;;;;;23.45;11.25;;;-2.50;99.90;;;;;;5054313;28;20037;-83
2024/01/19 01:27:04;;;;;;;16.27;10.13;;;-2.50;99.90;;;;;;5057133;28;20028;-80
2024/01/19 01:29:30;;;;;;;17.13;10.95;;;-2.40;99.90;;;;;;5054289;28;20474;-81
2024/01/19 01:31:56;;;;;;;17.58;11.23;;;-2.40;99.90;;;;;;5054204;28;20014;-82
2024/01/19 01:34:22;;;;;;;18.98;12.27;;;-2.40;99.90;;;;;;5054252;28;20669;-81
2024/01/19 01:36:48;;;;;;;16.08;11.10;;;-2.40;99.90;;;;;;5054106;28;20072;-80
2024/01/19 01:39:13;;;;;;;24.13;11.10;;;-2.40;99.90;;;;;;5054036;28;20554;-81
2024/01/19 01:41:41;;;;;;;22.95;11.75;;;-2.40;99.90;;;;;;5053759;28;20017;-81
2024/01/19 01:44:07;;;;;;;15.85;10.70;;;-2.40;99.90;;;;;;5042635;28;20482;-79
2024/01/19 01:46:33;;;;;;;16.20;10.73;;;-2.40;99.90;;;;;;5053849;28;20094;-81
2024/01/19 01:48:59;;;;;;;21.27;11.65;;;-2.40;99.90;;;;;;5035745;28;20470;-80
2024/01/19 01:51:25;;;;;;;19.02;11.77;;;-2.40;99.90;;;;;;5053740;28;20025;-81
2024/01/19 01:53:51;;;;;;;17.38;11.00;;;-2.30;99.90;;;;;;5050387;28;20394;-81
2024/01/19 01:56:17;;;;;;;15.35;9.93;;;-2.30;99.90;;;;;;5053679;28;20055;-81
2024/01/19 01:58:44;;;;;;;16.63;10.48;;;-2.30;99.90;;;;;;5035890;28;20025;-79
2024/01/19 02:01:10;;;;;;;19.85;11.43;;;-2.30;99.90;;;;;;5036044;28;20385;-81
2024/01/19 02:03:37;;;;;;;16.65;11.63;;;-2.30;99.90;;;;;;5049838;28;20029;-79
2024/01/19 02:06:04;;;;;;;21.70;11.10;;;-2.20;99.90;;;;;;5052433;28;20082;-80
2024/01/19 02:08:30;;;;;;;18.80;11.20;;;-2.30;99.90;;;;;;5053383;28;20021;-81
2024/01/19 02:10:56;;;;;;;17.70;11.40;;;-2.20;99.90;;;;;;5036222;28;20067;-80
2024/01/19 02:13:22;;;;;;;22.77;11.50;;;-2.20;99.90;;;;;;5039122;28;20032;-81
2024/01/19 02:15:48;;;;;;;18.17;11.57;;;-2.20;99.90;;;;;;5053261;28;20099;-80
2024/01/19 02:18:14;;;;;;;19.80;12.73;;;-2.10;99.90;;;;;;5053335;28;20040;-80
2024/01/19 02:20:39;;;;;;;18.92;11.73;;;-2.20;99.90;;;;;;5053967;28;20036;-81
2024/01/19 02:23:12;;;;;;;23.73;11.95;;;-2.10;99.90;;;;;;5053435;28;20028;-81
2024/01/19 02:25:38;;;;;;;19.05;10.63;;;-2.10;99.90;;;;;;5045299;28;20460;-80
2024/01/19 02:28:04;;;;;;;18.05;12.32;;;-2.10;99.90;;;;;;5052873;28;20097;-80
2024/01/19 02:30:31;;;;;;;24.48;12.80;;;-2.10;99.90;;;;;;5035023;28;20025;-79
2024/01/19 02:32:56;;;;;;;17.57;10.97;;;-2.10;99.90;;;;;;5033927;28;20032;-81
2024/01/19 02:35:22;;;;;;;16.63;10.63;;;-2.10;99.90;;;;;;5052639;28;20025;-80
2024/01/19 02:37:48;;;;;;;19.02;11.30;;;-2.10;99.90;;;;;;5035105;28;20039;-81
2024/01/19 02:40:14;;;;;;;19.35;11.15;;;-2.10;99.90;;;;;;5034439;28;20541;-80
2024/01/19 02:42:40;;;;;;;18.38;11.93;;;-2.10;99.90;;;;;;5053135;28;20021;-79
2024/01/19 02:45:07;;;;;;;16.52;10.57;;;-2.00;99.90;;;;;;5035254;28;20567;-79
2024/01/19 02:47:33;;;;;;;17.17;10.67;;;-2.10;99.90;;;;;;5055926;28;20092;-79
2024/01/19 02:49:59;;;;;;;18.38;9.98;;;-2.10;99.90;;;;;;5055828;28;20108;-79
2024/01/19 02:52:24;;;;;;;16.88;9.93;;;-2.10;99.90;;;;;;5055121;28;20537;-80
2024/01/19 02:54:50;;;;;;;18.45;11.27;;;-2.10;99.90;;;;;;5053889;28;20051;-80
2024/01/19 02:57:16;;;;;;;16.45;10.13;;;-2.10;99.90;;;;;;5053604;28;20021;-80
2024/01/19 02:59:42;;;;;;;17.83;11.45;;;-2.10;99.90;;;;;;5055013;28;20025;-81
2024/01/19 03:02:08;;;;;;;11.75;8.57;;;-2.10;99.90;;;;;;5052822;28;20453;-80
2024/01/19 03:04:33;;;;;;;18.35;11.80;;;-2.10;99.90;;;;;;5052346;28;20060;-78
2024/01/19 03:06:59;;;;;;;13.38;8.20;;;-2.10;99.90;;;;;;5052701;28;20401;-79
2024/01/19 03:09:25;;;;;;;16.17;10.35;;;-2.10;99.90;;;;;;5052317;28;20510;-80
2024/01/19 03:11:51;;;;;;;16.75;11.35;;;-2.10;99.90;;;;;;5060417;28;20039;-80
2024/01/19 03:14:16;;;;;;;14.77;9.18;;;-2.20;99.90;;;;;;5034405;28;20410;-78
2024/01/19 03:16:43;;;;;;;10.45;8.02;;;-2.20;99.90;;;;;;5036770;28;20022;-80
2024/01/19 03:19:09;;;;;;;16.23;10.35;;;-2.20;99.90;;;;;;5056049;28;20036;-79
2024/01/19 03:21:34;;;;;;;15.32;9.93;;;-2.20;99.90;;;;;;5034965;28;20029;-80
2024/01/19 03:24:00;;;;;;;18.52;11.20;;;-2.20;99.90;;;;;;5052208;28;20100;-81
2024/01/19 03:26:26;;;;;;;18.02;9.52;;;-2.20;99.90;;;;;;5021221;28;20040;-81
2024/01/19 03:28:52;;;;;;;14.40;8.93;;;-2.20;99.90;;;;;;5044708;28;20017;-79
2024/01/19 03:31:18;;;;;;;18.75;10.48;;;-2.20;99.90;;;;;;5060808;28;20044;-80
2024/01/19 03:33:43;;;;;;;14.07;9.65;;;-2.20;99.90;;;;;;5061103;28;20048;-78
2024/01/19 03:36:09;;;;;;;16.13;10.77;;;-2.20;99.90;;;;;;5063879;28;20021;-80
2024/01/19 03:38:35;;;;;;;12.13;8.48;;;-2.20;99.90;;;;;;5051836;28;20048;-79
2024/01/19 03:41:01;;;;;;;16.85;9.70;;;-2.20;99.90;;;;;;5066190;28;20021;-78
2024/01/19 03:43:26;;;;;;;13.95;10.98;;;-2.20;99.90;;;;;;5044961;28;20111;-81
2024/01/19 03:45:52;;;;;;;14.60;10.30;;;-2.20;99.90;;;;;;5052687;28;20051;-80
2024/01/19 03:48:18;;;;;;;17.10;9.20;;;-2.20;99.90;;;;;;5034410;28;20099;-79
2024/01/19 03:50:44;;;;;;;15.48;9.90;;;-2.30;99.90;;;;;;5034368;28;20454;-83
2024/01/19 03:53:41;;;;;;;19.98;11.00;;;-2.30;99.90;;;;;;5052668;28;20083;-79
2024/01/19 03:56:09;;;;;;;16.67;10.38;;;-2.30;99.90;;;;;;5040275;28;20104;-81
2024/01/19 03:58:35;;;;;;;19.65;11.18;;;-2.30;99.90;;;;;;5056469;28;20051;-81
2024/01/19 04:01:00;;;;;;;20.85;11.63;;;-2.40;99.90;;;;;;5052983;28;20477;-82
2024/01/19 04:03:26;;;;;;;18.60;11.95;;;-2.40;99.90;;;;;;5050650;28;20017;-81
2024/01/19 04:05:52;;;;;;;19.42;11.30;;;-2.40;99.90;;;;;;5052234;28;20080;-82
2024/01/19 04:08:19;;;;;;;17.90;10.55;;;-2.40;99.90;;;;;;5052383;28;20335;-82
2024/01/19 04:10:44;;;;;;;16.10;10.27;;;-2.50;99.90;;;;;;5034025;28;20032;-81
2024/01/19 04:13:10;;;;;;;18.55;10.90;;;-2.50;99.90;;;;;;5033875;28;20021;-81
2024/01/19 04:15:36;;;;;;;19.30;11.52;;;-2.50;99.90;;;;;;5046878;28;20060;-81
2024/01/19 04:18:02;;;;;;;18.70;11.50;;;-2.50;99.90;;;;;;5052227;28;20019;-81
2024/01/19 04:20:28;;;;;;;17.40;10.95;;;-2.50;99.90;;;;;;5039313;28;20059;-80
2024/01/19 04:22:53;;;;;;;20.73;12.13;;;-2.50;99.90;;;;;;5051993;28;20021;-80
2024/01/19 04:25:19;;;;;;;22.17;13.20;;;-2.50;99.90;;;;;;5033421;28;20037;-81
2024/01/19 04:27:45;;;;;;;17.75;11.43;;;-2.50;99.90;;;;;;5036309;28;20025;-82
2024/01/19 04:30:11;;;;;;;15.88;11.40;;;-2.50;99.90;;;;;;5055641;28;20021;-81
2024/01/19 04:32:37;;;;;;;16.92;11.98;;;-2.50;99.90;;;;;;5037611;28;20028;-81
2024/01/19 04:35:04;;;;;;;21.90;12.35;;;-2.50;99.90;;;;;;5053821;28;20037;-82
2024/01/19 04:37:30;;;;;;;19.83;11.07;;;-2.50;99.90;;;;;;5055507;28;20028;-81
2024/01/19 04:39:56;;;;;;;19.92;11.95;;;-2.50;99.90;;;;;;5055167;28;20032;-82
2024/01/19 04:42:22;;;;;;;22.15;12.95;;;-2.50;99.90;;;;;;5054857;28;20690;-81
2024/01/19 04:44:48;;;;;;;19.13;10.90;;;-2.50;99.90;;;;;;5055296;28;20072;-81
2024/01/19 04:47:13;;;;;;;18.45;11.20;;;-2.60;99.90;;;;;;5053816;28;20573;-81
2024/01/19 04:49:39;;;;;;;18.98;11.10;;;-2.50;99.90;;;;;;5055795;28;20040;-80
2024/01/19 04:52:05;;;;;;;15.98;11.13;;;-2.60;99.90;;;;;;5057532;28;20071;-81
2024/01/19 04:54:31;;;;;;;18.67;11.15;;;-2.60;99.90;;;;;;5067339;28;20420;-82
2024/01/19 04:56:57;;;;;;;20.17;12.63;;;-2.60;99.90;;;;;;5035248;28;20033;-81
2024/01/19 04:59:23;;;;;;;19.80;11.57;;;-2.60;99.90;;;;;;5052799;28;20017;-82
2024/01/19 05:01:48;;;;;;;21.75;12.88;;;-2.60;99.90;;;;;;5037217;28;20516;-81
2024/01/19 05:04:14;;;;;;;17.40;10.82;;;-2.60;99.90;;;;;;5034153;28;20029;-80
2024/01/19 05:06:42;;;;;;;18.65;12.48;;;-2.60;99.90;;;;;;5055054;28;20497;-81
2024/01/19 05:09:07;;;;;;;;;;;-2.60;99.90;;;;;;5055220;28;20540;-80
2024/01/19 05:11:33;;;;;;;18.55;10.43;;;-2.60;99.90;;;;;;5037389;28;19912;-80
2024/01/19 05:13:59;;;;;;;20.95;12.85;;;-2.70;99.90;;;;;;5054774;28;20136;-81
2024/01/19 05:16:25;;;;;;;17.17;11.77;;;-2.70;99.90;;;;;;5054813;28;20025;-82
2024/01/19 05:18:51;;;;;;;16.73;10.98;;;-2.70;99.90;;;;;;5036525;28;20021;-79
2024/01/19 05:21:16;;;;;;;23.17;11.13;;;-2.70;99.90;;;;;;5036598;28;20053;-81
2024/01/19 05:23:42;;;;;;;17.90;11.00;;;-2.80;99.90;;;;;;5036497;28;20025;-80
2024/01/19 05:26:08;;;;;;;19.48;11.82;;;-2.80;99.90;;;;;;5053928;28;20037;-81
2024/01/19 05:28:36;;;;;;;19.58;11.40;;;-2.80;99.90;;;;;;5036390;28;20379;-80
2024/01/19 05:31:02;;;;;;;19.15;12.40;;;-2.90;99.90;;;;;;5054097;28;20020;-81
2024/01/19 05:33:31;;;;;;;17.08;11.88;;;-2.90;99.90;;;;;;5055052;28;20082;-81
2024/01/19 05:35:57;;;;;;;20.13;10.63;;;-2.90;99.90;;;;;;5047678;28;20076;-81
2024/01/19 05:38:23;;;;;;;19.20;9.80;;;-3.00;99.90;;;;;;5053333;28;20029;-80
2024/01/19 05:40:48;;;;;;;18.10;12.13;;;-3.00;99.90;;;;;;5048672;28;20025;-81
2024/01/19 05:43:14;;;;;;;19.73;10.23;;;-3.00;99.90;;;;;;5049304;28;20039;-79
2024/01/19 05:45:40;;;;;;;17.50;11.93;;;-3.00;99.90;;;;;;5053525;28;20045;-80
2024/01/19 05:48:06;;;;;;;20.17;11.60;;;-3.00;99.90;;;;;;5053957;28;20052;-81
2024/01/19 05:50:32;;;;;;;22.45;11.43;;;-3.00;99.90;;;;;;5053613;28;20017;-82
2024/01/19 05:52:58;;;;;;;17.52;10.32;;;-3.00;99.90;;;;;;5037646;28;20048;-81
2024/01/19 05:55:24;;;;;;;19.45;10.18;;;-3.00;99.90;;;;;;5052888;28;20112;-82
2024/01/19 05:57:50;;;;;;;17.42;11.23;;;-3.00;99.90;;;;;;5053742;28;20473;-81
2024/01/19 06:00:16;;;;;;;17.20;11.18;;;-3.00;99.90;;;;;;5051958;28;20052;-81
2024/01/19 06:02:42;;;;;;;19.75;10.77;;;-2.90;99.90;;;;;;5050287;28;20478;-81
2024/01/19 06:05:08;;;;;;;17.73;10.25;;;-2.90;99.90;;;;;;5051579;28;20182;-82
2024/01/19 06:07:34;;;;;;;18.60;10.73;;;-2.90;99.90;;;;;;5032826;28;20408;-82
2024/01/19 06:10:00;;;;;;;18.88;11.32;;;-2.90;99.90;;;;;;5041240;28;20033;-82
2024/01/19 06:12:28;;;;;;;19.88;11.85;;;-2.90;99.90;;;;;;5044836;28;20013;-82
2024/01/19 06:14:54;;;;;;;12.77;8.07;;;-2.90;99.90;;;;;;5054548;28;20021;-82
2024/01/19 06:17:20;;;;;;;16.75;9.82;;;-2.90;99.90;;;;;;5049109;28;20474;-82
2024/01/19 06:19:46;;;;;;;17.58;9.93;;;-2.90;99.90;;;;;;5053922;28;20021;-81
2024/01/19 06:22:17;;;;;;;17.30;9.57;;;-2.90;99.90;;;;;;5044944;28;20029;-83
2024/01/19 06:24:43;;;;;;;15.77;9.38;;;-2.90;99.90;;;;;;5052845;28;20611;-82
2024/01/19 06:27:09;;;;;;;19.50;10.93;;;-3.00;99.90;;;;;;5053931;28;20020;-82
2024/01/19 06:29:34;;;;;;;20.52;11.55;;;-3.00;99.90;;;;;;5056031;28;20090;-81
2024/01/19 06:32:00;;;;;;;18.85;10.48;;;-3.00;99.90;;;;;;5047467;28;20504;-82
2024/01/19 06:34:26;;;;;;;20.90;10.52;;;-3.00;99.90;;;;;;5051700;28;20083;-80
2024/01/19 06:36:52;;;;;;;15.77;10.30;;;-3.00;99.90;;;;;;5041684;28;20079;-78
2024/01/19 06:39:18;;;;;;;19.15;10.13;;;-3.10;99.90;;;;;;5053143;28;20025;-79
2024/01/19 06:41:44;;;;;;;14.68;10.52;;;-3.10;99.90;;;;;;5052946;28;20108;-78
2024/01/19 06:44:11;;;;;;;15.57;9.65;;;-3.10;99.90;;;;;;5050017;28;20037;-78
2024/01/19 06:46:37;;;;;;;16.10;11.05;;;-3.10;99.90;;;;;;5036010;28;20067;-80
2024/01/19 06:49:03;;;;;;;18.23;10.32;;;-3.00;99.90;;;;;;5054764;28;20025;-80
2024/01/19 06:51:29;;;;;;;18.42;10.88;;;-3.10;99.90;;;;;;5055796;28;20493;-79
2024/01/19 06:53:56;;;;;;;17.50;11.05;;;-3.00;99.90;;;;;;5056258;28;20073;-81
2024/01/19 06:56:23;;;;;;;19.08;11.98;;;-3.00;99.90;;;;;;5042489;28;20016;-80
2024/01/19 06:58:49;;;;;;;18.67;10.10;;;-2.90;99.90;;;;;;5056638;28;20064;-79
2024/01/19 07:01:15;;;;;;;15.48;9.48;;;-2.90;99.90;;;;;;5052679;28;20055;-79
2024/01/19 07:03:40;;;;;;;19.67;10.32;;;-2.90;99.90;;;;;;5034648;28;20513;-79
2024/01/19 07:06:06;;;;;;;20.35;11.77;;;-2.90;99.90;;;;;;5039838;28;20029;-79
2024/01/19 07:08:32;;;;;;;15.73;10.35;;;-2.90;99.90;;;;;;5052378;28;20477;-81
2024/01/19 07:10:58;;;;;;;16.50;9.98;;;-2.90;99.90;;;;;;5052308;28;20032;-79
2024/01/19 07:13:24;;;;;;;17.58;10.93;;;-2.90;99.90;;;;;;5053707;28;20025;-81
2024/01/19 07:15:50;;;;;;;17.20;9.77;;;-2.90;99.90;;;;;;5031243;28;20033;-80
2024/01/19 07:18:15;;;;;;;18.52;12.82;;;-2.90;99.90;;;;;;5046445;28;20021;-80
2024/01/19 07:20:42;;;;;;;22.02;13.23;;;-2.90;99.90;;;;;;5060298;28;20021;-82
2024/01/19 07:23:07;;;;;;;12.55;9.65;;;-2.90;99.90;;;;;;5031657;28;20018;-79
2024/01/19 07:25:33;;;;;;;17.05;9.18;;;-2.80;99.90;;;;;;5045010;28;20041;-81
2024/01/19 07:27:59;;;;;;;15.43;10.25;;;-2.80;99.90;;;;;;5046349;28;20049;-81
2024/01/19 07:30:25;;;;;;;17.20;10.85;;;-2.80;99.90;;;;;;5052193;28;20024;-82
2024/01/19 07:32:51;;;;;;;19.60;9.50;;;-2.80;99.90;;;;;;5052090;28;20096;-81
2024/01/19 07:35:17;;;;;;;13.07;8.95;;;-2.70;99.90;;;;;;5052232;28;20269;-81
2024/01/19 07:37:43;;;;;;;14.60;7.05;;;-2.70;99.90;;;;;;5034399;28;20021;-82
2024/01/19 07:40:09;;;;;;;12.23;8.98;;;-2.70;99.90;;;;;;5046228;28;20044;-81
2024/01/19 07:42:35;;;;;;;14.43;8.52;;;-2.70;99.90;;;;;;5047795;28;20429;-83
2024/01/19 07:45:01;;;;;;;15.85;9.55;;;-2.70;99.90;;;;;;5030095;28;20136;-80
2024/01/19 07:47:27;;;;;;;15.90;9.52;;;-2.70;99.90;;;;;;5041502;28;20024;-82
2024/01/19 07:49:53;;;;;;;15.82;8.20;;;-2.70;99.90;;;;;;5046806;28;20112;-87
2024/01/19 07:52:21;;;;;;;12.60;8.95;;;-2.70;99.90;;;;;;5035773;28;20481;-86
2024/01/19 07:54:47;;;;;;;16.50;9.02;;;-2.70;99.90;;;;;;5052904;28;20040;-81
2024/01/19 07:57:13;;;;;;;14.63;8.88;;;-2.70;99.90;;;;;;5045933;28;20021;-80
2024/01/19 07:59:43;;;;;;;17.08;9.63;;;-2.70;99.90;;;;;;5034014;28;20025;-81
2024/01/19 08:02:09;;;;;;;13.25;8.98;;;-2.70;99.90;;;;;;5031920;28;20029;-80
2024/01/19 08:04:35;;;;;;;13.57;8.65;;;-2.70;99.90;;;;;;5044057;28;20394;-80
2024/01/19 08:07:02;;;;;;;15.32;9.70;;;-2.70;99.90;;;;;;5037182;28;20032;-80
2024/01/19 08:09:27;;;;;;;15.65;9.65;;;-2.70;99.90;;;;;;5044657;28;20482;-81
2024/01/19 08:11:53;;;;;;;16.77;10.10;;;-2.70;99.90;;;;;;5056629;28;20032;-82
2024/01/19 08:14:19;;;;;;;17.92;9.90;;;-2.70;99.90;;;;;;5038314;28;20037;-81
2024/01/19 08:16:45;;;;;;;15.23;9.70;;;-2.70;99.90;;;;;;5048623;28;20021;-80
2024/01/19 08:19:13;;;;;;;14.85;9.25;;;-2.70;99.90;;;;;;5043566;28;20030;-78
2024/01/19 08:21:42;;;;;;;16.63;10.38;;;-2.60;99.90;;;;;;5045911;28;20026;-81
2024/01/19 08:24:08;;;;;;;17.73;10.35;;;-2.60;99.90;;;;;;5050082;28;20036;-80
2024/01/19 08:26:34;;;;;;;15.85;9.55;;;-2.60;99.90;;;;;;5037444;28;20033;-80
2024/01/19 08:29:03;;;;;;;17.23;10.55;;;-2.60;99.90;;;;;;5055659;28;20019;-80
2024/01/19 08:31:30;;;;;;;19.88;10.60;;;-2.60;99.90;;;;;;5055593;28;20024;-80
2024/01/19 08:33:56;;;;;;;22.85;11.40;;;-2.60;99.90;;;;;;5051059;28;20021;-81
2024/01/19 08:36:25;;;;;;;15.40;10.27;;;-2.50;99.90;;;;;;5056976;28;20413;-83
2024/01/19 08:38:52;;;;;;;18.70;9.80;;;-2.50;99.90;;;;;;5027457;28;20116;-83
2024/01/19 08:41:17;;;;;;;15.02;10.70;;;-2.50;99.90;;;;;;5054484;28;20043;-82
2024/01/19 08:43:43;;;;;;;27.15;13.63;;;-2.50;99.90;;;;;;5052012;28;20115;-81
2024/01/19 08:46:09;;;;;;;13.50;9.25;;;-2.40;99.90;;;;;;5056096;28;20033;-84
2024/01/19 08:48:35;;;;;;;14.05;9.73;;;-2.40;99.90;;;;;;5055461;28;20095;-82
2024/01/19 08:51:01;;;;;;;14.15;9.77;;;-2.40;99.90;;;;;;5037390;28;20024;-80
2024/01/19 08:53:27;;;;;;;18.42;10.68;;;-2.40;99.90;;;;;;5035303;28;20150;-84
2024/01/19 08:55:56;;;;;;;15.63;10.10;;;-2.40;99.90;;;;;;5051151;28;20025;-84
2024/01/19 08:58:22;;;;;;;15.85;9.73;;;-2.40;99.90;;;;;;5040739;28;20124;-83
2024/01/19 09:00:48;;;;;;;17.65;9.45;;;-2.40;99.90;;;;;;5041835;28;20059;-82
2024/01/19 09:03:15;;;;;;;17.63;9.80;;;-2.40;99.90;;;;;;5037353;28;20029;-81
2024/01/19 09:05:40;;;;;;;17.40;9.98;;;-2.30;99.90;;;;;;5037002;28;20044;-81
2024/01/19 09:08:06;;;;;;;17.90;10.48;;;-2.30;99.90;;;;;;5055303;28;20032;-81
2024/01/19 09:10:33;;;;;;;16.33;10.98;;;-2.30;99.90;;;;;;5039611;28;20020;-82
2024/01/19 09:12:59;;;;;;;13.65;9.25;;;-2.30;99.90;;;;;;5039267;28;20083;-83
2024/01/19 09:15:25;;;;;;;17.88;10.65;;;-2.30;99.90;;;;;;5051236;28;20024;-83
2024/01/19 09:17:51;;;;;;;18.33;10.00;;;-2.20;99.90;;;;;;5042870;28;20088;-83
2024/01/19 09:20:16;;;;;;;11.43;8.18;;;-2.20;99.90;;;;;;5054391;28;20478;-83
2024/01/19 09:22:43;;;;;;;18.52;9.13;;;-2.10;99.90;;;;;;5057710;28;20021;-82
2024/01/19 09:25:11;;;;;;;13.30;10.10;;;-2.10;99.90;;;;;;5040932;28;20021;-83
2024/01/19 09:27:37;;;;;;;13.27;8.73;;;-2.00;99.90;;;;;;5053276;28;20032;-81
2024/01/19 09:30:03;;;;;;;16.38;10.07;;;-2.00;99.90;;;;;;5034750;28;20160;-83
2024/01/19 09:32:29;;;;;;;16.48;9.70;;;-2.00;99.90;;;;;;5052847;28;20495;-83
2024/01/19 09:34:55;;;;;;;18.55;11.50;;;-1.90;99.40;;;;;;5037170;28;20139;-83
2024/01/19 09:37:20;;;;;;;14.60;9.13;;;-2.00;99.40;;;;;;5038235;28;20021;-82
2024/01/19 09:39:46;;;;;;;12.75;8.38;;;-1.90;99.40;;;;;;5042483;28;20029;-83
2024/01/19 09:42:24;;;;;;;17.70;10.20;;;-1.90;99.50;;;;;;5052608;28;20024;-83
2024/01/19 09:45:04;;;;;;;17.20;10.55;;;-2.00;99.40;;;;;;5036155;28;20049;-82
2024/01/19 09:47:50;;;;;;;14.80;9.60;;;-1.90;99.40;;;;;;5039324;28;20028;-84
2024/01/19 09:50:19;;;;;;;13.05;8.52;;;-2.00;99.40;;;;;;5039029;28;20033;-83
2024/01/19 09:53:01;;;;;;;16.77;10.02;;;-2.00;99.50;;;;;;5054690;28;20099;-84
2024/01/19 09:55:28;;;;;;;14.02;7.47;;;-2.00;99.50;;;;;;5056393;28;20074;-86
2024/01/19 09:57:55;;;;;;;12.98;8.95;;;-2.00;99.60;;;;;;5043536;28;20115;-83
2024/01/19 10:00:21;;;;;;;16.60;9.32;;;-2.00;99.70;;;;;;5057906;28;20022;-83
2024/01/19 10:02:48;;;;;;;16.77;8.80;;;-1.90;99.80;;;;;;5057380;28;20032;-81
2024/01/19 10:05:16;;;;;;;12.18;8.40;;;-1.80;99.80;;;;;;5019973;28;20037;-83
2024/01/19 10:07:42;;;;;;;;;;;-1.80;99.70;;;;;;5054324;28;20024;-83
2024/01/19 10:10:08;;;;;;;14.80;9.00;;;-1.80;99.60;;;;;;5054019;28;20277;-82
2024/01/19 10:12:36;;;;;;;14.90;9.13;;;-1.70;99.60;;;;;;5053880;28;20028;-83
2024/01/19 10:15:01;;;;;;;13.85;8.35;;;-1.70;99.40;;;;;;5054999;28;20474;-82
2024/01/19 10:17:29;;;;;;;13.02;8.48;;;-1.60;99.40;;;;;;5053036;28;20028;-82
2024/01/19 10:19:56;;;;;;;13.73;8.73;;;-1.50;99.50;;;;;;5036651;28;20059;-82
2024/01/19 10:22:26;;;;;;;14.05;8.13;;;-1.50;99.40;;;;;;5053852;28;20025;-83
2024/01/19 10:25:00;;;;;;;13.65;8.93;;;-1.50;99.20;;;;;;5051525;28;20100;-84
2024/01/19 10:27:41;;;;;;;15.43;8.65;;;-1.40;98.80;;;;;;5053628;28;20162;-84
2024/01/19 10:30:09;;;;;;;16.10;9.05;;;-1.40;98.80;;;;;;5044539;28;20458;-83
2024/01/19 10:32:37;;;;;;;13.88;8.43;;;-1.40;99.00;;;;;;5039440;28;20056;-84
2024/01/19 10:35:05;;;;;;;19.25;8.55;;;-1.40;98.90;;;;;;5048631;28;20013;-84
2024/01/19 10:37:31;;;;;;;13.55;9.55;;;-1.50;98.70;;;;;;5045483;28;20368;-84
2024/01/19 10:40:12;;;;;;;14.25;9.57;;;-1.50;98.70;;;;;;5029181;28;20024;-84
2024/01/19 10:42:42;;;;;;;10.48;9.02;;;-1.50;98.70;;;;;;5035330;28;20231;-82
2024/01/19 10:45:15;;;;;;;12.73;7.85;;;-1.50;98.30;;;;;;5042399;28;20045;-81
2024/01/19 10:47:43;;;;;;;13.57;9.73;;;-1.40;98.40;;;;;;5034645;28;20458;-82
2024/01/19 10:50:15;;;;;;;15.13;8.70;;;-1.50;98.40;;;;;;5052148;28;20025;-81
2024/01/19 10:52:48;;;;;;;12.02;7.78;;;-1.50;98.40;;;;;;5027962;28;20051;-82
2024/01/19 10:55:28;;;;;;;10.35;6.50;;;-1.50;98.10;;;;;;5053013;28;20025;-82
2024/01/19 10:57:55;;;;;;;15.80;8.23;;;-1.50;97.40;;;;;;5035194;28;20017;-81
2024/01/19 11:00:23;;;;;;;11.23;7.82;;;-1.60;97.20;;;;;;5055691;28;20131;-81
2024/01/19 11:03:00;;;;;;;16.60;8.10;;;-1.60;97.30;;;;;;5042580;28;20036;-87
2024/01/19 11:05:26;;;;;;;17.35;10.88;;;-1.70;97.10;;;;;;5028912;28;20036;-87
2024/01/19 11:07:53;;;;;;;14.48;9.63;;;-1.70;97.20;;;;;;5036678;28;20040;-84
2024/01/19 11:10:20;;;;;;;11.35;8.65;;;-1.70;97.30;;;;;;5043588;28;20021;-90
2024/01/19 11:12:56;;;;;;;13.27;8.77;;;-1.80;97.40;;;;;;5052272;28;20025;-91
2024/01/19 11:15:38;;;;;;;14.13;8.85;;;-1.80;97.70;;;;;;5038139;28;20049;-89
2024/01/19 11:18:06;;;;;;;13.38;7.82;;;-1.90;98.00;;;;;;5037921;28;20086;-83
2024/01/19 11:20:33;;;;;;;11.98;7.88;;;-1.90;97.90;;;;;;5053047;28;20028;-85
2024/01/19 11:23:01;;;;;;;13.07;7.63;;;-2.00;97.80;;;;;;5036382;28;20497;-87
2024/01/19 11:25:51;;;;;;;13.63;7.07;;;-2.00;97.80;;;;;;5053644;28;20056;-85
2024/01/19 11:28:24;;;;;;;15.90;8.43;;;-2.10;97.80;;;;;;5053943;28;20416;-86
2024/01/19 11:31:09;;;;;;;18.55;8.30;;;-2.10;97.70;;;;;;5053386;28;20056;-80
2024/01/19 11:33:35;;;;;;;14.77;7.90;;;-2.20;97.70;;;;;;5052037;28;20470;-81
2024/01/19 11:36:01;;;;;;;11.88;8.38;;;-2.30;97.80;;;;;;5033103;28;20086;-80
2024/01/19 11:38:38;;;;;;;14.30;9.38;;;-2.30;97.90;;;;;;5050500;28;20052;-82
2024/01/19 11:41:05;;;;;;;22.73;11.10;;;-2.30;97.80;;;;;;5051603;28;20029;-81
2024/01/19 11:43:41;;;;;;;14.95;7.80;;;-2.30;98.10;;;;;;5050674;28;20037;-82
2024/01/19 11:46:19;;;;;;;13.27;7.00;;;-2.30;98.00;;;;;;5052406;28;20497;-79
2024/01/19 11:48:45;;;;;;;18.27;7.68;;;-2.40;98.10;;;;;;5037585;28;20028;-83
2024/01/19 11:51:46;;;;;;;15.38;8.68;;;-2.40;98.10;;;;;;5054182;28;20146;-81
2024/01/19 11:54:12;;;;;;;12.85;8.32;;;-2.40;98.00;;;;;;5008229;28;20033;-81
2024/01/19 11:56:38;;;;;;;13.25;8.38;;;-2.50;98.00;;;;;;5031330;28;20389;-81
2024/01/19 11:59:03;;;;;;;14.90;8.57;;;-2.50;98.10;;;;;;5051169;28;20032;-82
2024/01/19 12:01:38;;;;;;;11.55;7.15;;;-2.50;98.20;;;;;;5052499;28;20028;-83
2024/01/19 12:04:04;;;;;;;14.25;8.23;;;-2.60;98.20;;;;;;5061150;28;20067;-80
2024/01/19 12:06:30;;;;;;;14.85;7.18;;;-2.60;98.20;;;;;;5038197;28;20029;-79
2024/01/19 12:09:05;;;;;;;13.13;7.68;;;-2.60;98.30;;;;;;5033133;28;20482;-80
2024/01/19 12:11:32;;;;;;;14.82;7.00;;;-2.60;98.20;;;;;;5033974;28;20378;-81
2024/01/19 12:14:03;;;;;;;19.42;8.07;;;-2.60;98.30;;;;;;5051431;28;20028;-81
2024/01/19 12:16:31;;;;;;;15.38;7.43;;;-2.70;98.40;;;;;;5050142;28;20430;-80
2024/01/19 12:18:58;;;;;;;16.65;9.27;;;-2.70;98.40;;;;;;5051509;28;20032;-80
2024/01/19 12:21:24;;;;;;;14.10;7.93;;;-2.70;98.50;;;;;;5051812;28;20013;-81
2024/01/19 12:23:55;;;;;;;16.63;8.80;;;-2.80;98.60;;;;;;5051103;28;20258;-79
2024/01/19 12:26:21;;;;;;;9.93;8.02;;;-2.80;98.60;;;;;;5033906;28;20032;-80
2024/01/19 12:28:51;;;;;;;14.57;7.43;;;-2.80;98.90;;;;;;5051753;28;20032;-81
2024/01/19 12:31:36;;;;;;;13.60;6.55;;;-2.90;99.40;;;;;;5034193;28;20044;-79